Time,TemperatureF,DewpointF,PressureIn,WindDirection,WindDirectionDegrees,WindSpeedMPH,WindSpeedGustMPH,Humidity,HourlyPrecipIn,Conditions,Clouds,dailyrainin,SoftwareType,DateUTC
2013-09-17 00:00:00,56.5,0.5,29.75,East,90,0.2,0.2,1,0.00,,,0.47,WUHU216HW,2013-09-17 07:00:00,
2013-09-17 00:05:00,56.5,0.5,29.75,NNE,23,1.1,1.1,1,0.00,,,0.00,WUHU216HW,2013-09-17 07:05:00,
2013-09-17 00:10:00,56.5,0.5,29.75,NNE,23,0.4,1.1,1,0.00,,,0.00,WUHU216HW,2013-09-17 07:10:00,
2013-09-17 00:15:00,56.5,0.5,29.74,NE,45,0.2,0.9,1,0.00,,,0.00,WUHU216HW,2013-09-17 07:15:00,
2013-09-17 00:20:00,56.3,0.5,29.75,NE,45,0.0,0.9,1,0.00,,,0.00,WUHU216HW,2013-09-17 07:20:00,
2013-09-17 00:25:00,56.5,0.5,29.75,NNE,23,0.0,0.4,1,0.00,,,0.00,WUHU216HW,2013-09-17 07:25:00,
2013-09-17 00:30:00,56.3,0.5,29.74,NNE,23,0.4,0.4,1,0.00,,,0.00,WUHU216HW,2013-09-17 07:30:00,
2013-09-17 00:35:00,56.3,0.5,29.74,NE,45,0.0,0.4,1,0.00,,,0.00,WUHU216HW,2013-09-17 07:35:00,
2013-09-17 00:40:00,56.3,0.5,29.74,NE,45,0.4,0.4,1,0.00,,,0.00,WUHU216HW,2013-09-17 07:40:00,
2013-09-17 00:45:00,56.3,0.5,29.74,ESE,113,0.7,0.7,1,0.00,,,0.00,WUHU216HW,2013-09-17 07:45:00,
2013-09-17 00:50:00,56.3,0.5,29.74,East,90,1.1,1.1,1,0.00,,,0.00,WUHU216HW,2013-09-17 07:50:00,
2013-09-17 00:55:00,56.3,0.5,29.74,East,90,0.0,1.1,1,0.00,,,0.00,WUHU216HW,2013-09-17 07:55:00,
2013-09-17 01:00:00,56.2,0.4,29.74,ENE,68,0.2,1.1,1,0.00,,,0.00,WUHU216HW,2013-09-17 08:00:00,
2013-09-17 01:05:00,56.2,0.4,29.74,ENE,68,0.0,0.9,1,0.00,,,0.00,WUHU216HW,2013-09-17 08:05:00,
2013-09-17 01:10:00,56.2,0.4,29.74,East,90,0.0,0.4,1,0.00,,,0.00,WUHU216HW,2013-09-17 08:10:00,
2013-09-17 01:15:00,56.2,0.4,29.74,East,90,0.0,0.4,1,0.00,,,0.00,WUHU216HW,2013-09-17 08:15:00,
2013-09-17 01:20:00,56.0,0.2,29.74,East,90,0.0,0.4,1,0.00,,,0.00,WUHU216HW,2013-09-17 08:20:00,
2013-09-17 01:25:00,56.0,0.2,29.74,East,90,0.0,0.4,1,0.00,,,0.00,WUHU216HW,2013-09-17 08:25:00,
2013-09-17 01:30:00,56.0,0.2,29.74,East,90,0.0,0.0,1,0.00,,,0.00,WUHU216HW,2013-09-17 08:30:00,
2013-09-17 01:35:00,56.0,0.2,29.74,East,90,0.0,0.0,1,0.00,,,0.00,WUHU216HW,2013-09-17 08:35:00,
2013-09-17 01:40:00,56.0,0.2,29.74,East,90,0.0,0.0,1,0.00,,,0.00,WUHU216HW,2013-09-17 08:40:00,
2013-09-17 01:45:00,56.0,0.2,29.74,East,90,0.0,0.0,1,0.00,,,0.00,WUHU216HW,2013-09-17 08:45:00,
2013-09-17 01:50:00,55.8,0.1,29.73,East,90,0.0,0.0,1,0.00,,,0.00,WUHU216HW,2013-09-17 08:50:00,
2013-09-17 01:55:00,55.8,0.1,29.73,East,90,0.4,0.4,1,0.00,,,0.00,WUHU216HW,2013-09-17 08:55:00,
2013-09-17 02:00:00,55.8,0.1,29.73,East,90,0.4,0.4,1,0.00,,,0.00,WUHU216HW,2013-09-17 09:00:00,
2013-09-17 02:05:00,55.8,0.1,29.73,NNE,23,0.2,0.4,1,0.00,,,0.00,WUHU216HW,2013-09-17 09:05:00,
2013-09-17 02:10:00,55.8,0.1,29.73,ESE,113,0.4,0.9,1,0.00,,,0.00,WUHU216HW,2013-09-17 09:10:00,
2013-09-17 02:15:00,55.8,0.1,29.73,SSW,203,0.4,0.9,1,0.00,,,0.00,WUHU216HW,2013-09-17 09:15:00,
2013-09-17 02:20:00,55.8,0.1,29.73,ESE,113,0.0,0.7,1,0.00,,,0.00,WUHU216HW,2013-09-17 09:20:00,
2013-09-17 02:25:00,55.8,0.1,29.73,ESE,113,0.0,0.2,1,0.00,,,0.00,WUHU216HW,2013-09-17 09:25:00,
2013-09-17 02:30:00,55.8,0.1,29.73,ESE,113,0.0,0.2,1,0.00,,,0.00,WUHU216HW,2013-09-17 09:30:00,
2013-09-17 02:35:00,55.6,-0.1,29.72,SE,135,0.0,0.4,1,0.00,,,0.00,WUHU216HW,2013-09-17 09:35:00,
2013-09-17 02:40:00,55.6,-0.1,29.72,SE,135,0.0,0.4,1,0.00,,,0.00,WUHU216HW,2013-09-17 09:40:00,
2013-09-17 02:45:00,55.6,-0.1,29.72,SE,135,0.0,0.0,1,0.00,,,0.00,WUHU216HW,2013-09-17 09:45:00,
2013-09-17 02:50:00,55.6,-0.1,29.72,SE,135,0.0,0.0,1,0.00,,,0.00,WUHU216HW,2013-09-17 09:50:00,
2013-09-17 02:55:00,55.6,-0.1,29.72,East,90,0.2,0.2,1,0.00,,,0.00,WUHU216HW,2013-09-17 09:55:00,
2013-09-17 03:00:00,55.8,0.1,29.72,NNE,23,0.0,0.4,1,0.00,,,0.00,WUHU216HW,2013-09-17 10:00:00,
2013-09-17 03:05:00,55.6,-0.1,29.72,ENE,68,0.0,0.4,1,0.00,,,0.00,WUHU216HW,2013-09-17 10:05:00,
2013-09-17 03:10:00,55.6,-0.1,29.72,ENE,68,0.0,0.0,1,0.00,,,0.00,WUHU216HW,2013-09-17 10:10:00,
2013-09-17 03:14:00,55.6,-0.1,29.72,NNE,23,0.4,0.4,1,0.00,,,0.00,WUHU216HW,2013-09-17 10:14:00,
2013-09-17 03:20:00,55.4,-0.2,29.72,North,0,0.0,0.4,1,0.00,,,0.00,WUHU216HW,2013-09-17 10:20:00,
2013-09-17 03:25:00,55.6,-0.1,29.72,North,0,0.0,0.2,1,0.00,,,0.00,WUHU216HW,2013-09-17 10:25:00,
2013-09-17 03:30:00,55.4,-0.2,29.72,NNW,338,0.0,0.0,1,0.00,,,0.00,WUHU216HW,2013-09-17 10:30:00,
2013-09-17 03:35:00,55.4,-0.2,29.71,NNW,338,0.0,0.0,1,0.00,,,0.00,WUHU216HW,2013-09-17 10:35:00,
2013-09-17 03:40:00,55.4,-0.2,29.71,North,0,0.0,0.0,1,0.00,,,0.00,WUHU216HW,2013-09-17 10:40:00,
2013-09-17 03:45:00,55.4,-0.2,29.71,North,0,0.0,0.0,1,0.00,,,0.00,WUHU216HW,2013-09-17 10:45:00,
2013-09-17 03:50:00,55.3,-0.4,29.70,North,0,0.0,0.0,1,0.00,,,0.00,WUHU216HW,2013-09-17 10:50:00,
2013-09-17 03:54:00,55.3,-0.4,29.71,North,0,0.0,0.0,1,0.00,,,0.00,WUHU216HW,2013-09-17 10:54:00,
2013-09-17 04:00:00,55.1,-0.4,29.70,North,0,0.0,0.0,1,0.00,,,0.00,WUHU216HW,2013-09-17 11:00:00,
2013-09-17 04:04:00,55.1,-0.4,29.70,North,0,0.0,0.0,1,0.00,,,0.00,WUHU216HW,2013-09-17 11:04:00,
2013-09-17 04:09:00,55.1,-0.4,29.70,North,0,0.0,0.0,1,0.00,,,0.00,WUHU216HW,2013-09-17 11:09:00,
2013-09-17 04:14:00,55.1,-0.4,29.70,SE,135,0.0,1.1,1,0.00,,,0.00,WUHU216HW,2013-09-17 11:14:00,
2013-09-17 04:19:00,55.1,-0.4,29.70,SE,135,0.0,1.1,1,0.00,,,0.00,WUHU216HW,2013-09-17 11:19:00,
2013-09-17 04:24:00,54.9,-0.6,29.70,SE,135,0.0,0.0,1,0.00,,,0.00,WUHU216HW,2013-09-17 11:24:00,
2013-09-17 04:29:00,54.9,-0.6,29.70,SE,135,0.0,0.0,1,0.00,,,0.00,WUHU216HW,2013-09-17 11:29:00,
2013-09-17 04:34:00,54.7,-0.7,29.70,SE,135,0.0,0.0,1,0.00,,,0.00,WUHU216HW,2013-09-17 11:34:00,
2013-09-17 04:39:00,54.7,-0.7,29.70,SE,135,0.0,0.0,1,0.00,,,0.00,WUHU216HW,2013-09-17 11:39:00,
2013-09-17 04:44:00,54.5,-0.9,29.70,SE,135,1.1,1.1,1,0.00,,,0.00,WUHU216HW,2013-09-17 11:44:00,
2013-09-17 04:49:00,54.4,-1.1,29.70,NW,315,0.2,1.1,1,0.00,,,0.00,WUHU216HW,2013-09-17 11:49:00,
2013-09-17 04:54:00,54.2,-1.2,29.70,NW,315,0.0,0.4,1,0.00,,,0.00,WUHU216HW,2013-09-17 11:54:00,
2013-09-17 04:59:00,54.2,-1.2,29.70,NW,315,0.0,0.0,1,0.00,,,0.00,WUHU216HW,2013-09-17 11:59:00,
2013-09-17 05:04:00,53.8,-1.4,29.70,NNE,23,1.1,1.1,1,0.00,,,0.00,WUHU216HW,2013-09-17 12:04:00,
2013-09-17 05:09:00,53.8,-1.4,29.70,NNE,23,0.0,1.1,1,0.00,,,0.00,WUHU216HW,2013-09-17 12:09:00,
2013-09-17 05:14:00,53.6,-1.6,29.70,NNE,23,0.0,0.7,1,0.00,,,0.00,WUHU216HW,2013-09-17 12:14:00,
2013-09-17 05:19:00,53.6,-1.6,29.70,SE,135,0.0,0.7,1,0.00,,,0.00,WUHU216HW,2013-09-17 12:19:00,
2013-09-17 05:24:00,53.5,-1.8,29.70,SE,135,0.0,0.7,1,0.00,,,0.00,WUHU216HW,2013-09-17 12:24:00,
2013-09-17 05:29:00,53.5,-1.8,29.70,ENE,68,0.0,0.4,1,0.00,,,0.00,WUHU216HW,2013-09-17 12:29:00,
2013-09-17 05:34:00,53.5,-1.8,29.69,ENE,68,0.0,0.4,1,0.00,,,0.00,WUHU216HW,2013-09-17 12:34:00,
2013-09-17 05:39:00,53.6,-1.6,29.69,ENE,68,0.0,0.0,1,0.00,,,0.00,WUHU216HW,2013-09-17 12:39:00,
2013-09-17 05:44:00,53.6,-1.6,29.70,ENE,68,0.0,0.0,1,0.00,,,0.00,WUHU216HW,2013-09-17 12:44:00,
2013-09-17 05:49:00,53.6,-1.6,29.69,ENE,68,0.0,0.0,1,0.00,,,0.00,WUHU216HW,2013-09-17 12:49:00,
2013-09-17 05:54:00,53.6,-1.6,29.69,ENE,68,0.7,0.7,1,0.00,,,0.00,WUHU216HW,2013-09-17 12:54:00,
2013-09-17 05:59:00,53.5,-1.8,29.69,ENE,68,0.0,0.7,1,0.00,,,0.00,WUHU216HW,2013-09-17 12:59:00,
2013-09-17 06:03:00,53.5,-1.8,29.70,ENE,68,0.0,0.0,1,0.00,,,0.00,WUHU216HW,2013-09-17 13:03:00,
2013-09-17 06:04:00,53.5,-1.8,29.70,ENE,68,0.0,0.4,1,0.00,,,0.00,WUHU216HW,2013-09-17 13:04:00,
2013-09-17 06:09:00,53.5,-1.8,29.70,ENE,68,0.0,0.0,1,0.00,,,0.00,WUHU216HW,2013-09-17 13:09:00,
2013-09-17 06:34:00,54.0,-1.3,29.70,SSW,203,0.0,0.0,1,0.00,,,0.00,WUHU216HW,2013-09-17 13:34:00,
2013-09-17 06:39:00,54.0,-1.3,29.70,SSW,203,0.9,0.9,1,0.00,,,0.00,WUHU216HW,2013-09-17 13:39:00,
2013-09-17 06:44:00,54.0,-1.3,29.70,SSW,203,0.0,0.9,1,0.00,,,0.00,WUHU216HW,2013-09-17 13:44:00,
2013-09-17 06:49:00,54.0,-1.3,29.70,SSW,203,0.0,0.2,1,0.00,,,0.00,WUHU216HW,2013-09-17 13:49:00,
2013-09-17 06:54:00,54.2,-1.2,29.70,NE,45,0.7,0.7,1,0.00,,,0.00,WUHU216HW,2013-09-17 13:54:00,
2013-09-17 06:59:00,54.2,-1.2,29.70,NE,45,0.0,0.7,1,0.00,,,0.00,WUHU216HW,2013-09-17 13:59:00,
2013-09-17 07:04:00,54.4,-1.1,29.70,NE,45,0.0,0.4,1,0.00,,,0.00,WUHU216HW,2013-09-17 14:04:00,
2013-09-17 07:09:00,54.2,-1.2,29.70,WSW,248,0.0,0.9,1,0.00,,,0.00,WUHU216HW,2013-09-17 14:09:00,
2013-09-17 07:14:00,54.2,-1.2,29.70,NNW,338,0.0,0.9,1,0.00,,,0.00,WUHU216HW,2013-09-17 14:14:00,
2013-09-17 07:19:00,54.2,-1.2,29.70,NNW,338,0.0,0.0,1,0.00,,,0.00,WUHU216HW,2013-09-17 14:19:00,
2013-09-17 07:24:00,54.4,-1.1,29.70,NNW,338,0.0,0.0,1,0.00,,,0.00,WUHU216HW,2013-09-17 14:24:00,
2013-09-17 07:29:00,54.4,-1.1,29.70,SW,225,0.2,0.2,1,0.00,,,0.00,WUHU216HW,2013-09-17 14:29:00,
2013-09-17 07:34:00,54.4,-1.1,29.70,SSW,203,0.2,0.9,1,0.00,,,0.00,WUHU216HW,2013-09-17 14:34:00,
2013-09-17 07:39:00,54.5,-0.9,29.70,South,180,0.0,1.3,1,0.00,,,0.00,WUHU216HW,2013-09-17 14:39:00,
2013-09-17 07:44:00,54.7,-0.7,29.70,SSW,203,0.2,1.3,1,0.00,,,0.00,WUHU216HW,2013-09-17 14:44:00,
2013-09-17 07:49:00,54.7,-0.7,29.70,SSW,203,0.0,1.1,1,0.00,,,0.00,WUHU216HW,2013-09-17 14:49:00,
2013-09-17 07:54:00,55.1,-0.4,29.69,SSW,203,0.0,0.4,1,0.00,,,0.00,WUHU216HW,2013-09-17 14:54:00,
2013-09-17 07:59:00,55.3,-0.4,29.70,SSW,203,1.1,1.1,1,0.00,,,0.00,WUHU216HW,2013-09-17 14:59:00,
2013-09-17 08:04:00,55.4,-0.2,29.70,SSW,203,0.0,1.1,1,0.00,,,0.00,WUHU216HW,2013-09-17 15:04:00,
2013-09-17 08:09:00,55.6,-0.1,29.70,SSW,203,0.0,0.7,1,0.00,,,0.00,WUHU216HW,2013-09-17 15:09:00,
2013-09-17 08:14:00,56.0,0.2,29.70,SSW,203,1.1,1.1,1,0.00,,,0.00,WUHU216HW,2013-09-17 15:14:00,
2013-09-17 08:19:00,56.2,0.4,29.70,SSW,203,0.0,1.1,1,0.00,,,0.00,WUHU216HW,2013-09-17 15:19:00,
2013-09-17 08:24:00,56.2,0.4,29.70,South,180,0.7,0.7,1,0.00,,,0.00,WUHU216HW,2013-09-17 15:24:00,
2013-09-17 08:29:00,56.2,0.4,29.70,SW,225,0.0,1.1,1,0.00,,,0.00,WUHU216HW,2013-09-17 15:29:00,
2013-09-17 08:34:00,56.3,0.5,29.70,SSW,203,0.0,1.1,1,0.00,,,0.00,WUHU216HW,2013-09-17 15:34:00,
2013-09-17 08:39:00,56.3,0.5,29.70,SSW,203,0.0,0.4,1,0.00,,,0.00,WUHU216HW,2013-09-17 15:39:00,
2013-09-17 08:44:00,56.3,0.5,29.70,South,180,1.6,1.6,1,0.00,,,0.00,WUHU216HW,2013-09-17 15:44:00,
2013-09-17 08:49:00,56.5,0.5,29.70,SSE,158,0.0,1.6,1,0.00,,,0.00,WUHU216HW,2013-09-17 15:49:00,
2013-09-17 08:54:00,56.7,0.7,29.70,SE,135,1.1,1.1,1,0.00,,,0.00,WUHU216HW,2013-09-17 15:54:00,
2013-09-17 08:59:00,56.9,0.8,29.70,SSE,158,0.0,1.1,1,0.00,,,0.00,WUHU216HW,2013-09-17 15:59:00,
2013-09-17 09:04:00,57.1,1.0,29.70,SSE,158,0.0,0.4,1,0.00,,,0.00,WUHU216HW,2013-09-17 16:04:00,
2013-09-17 09:09:00,57.1,1.0,29.70,SSE,158,0.0,0.0,1,0.00,,,0.00,WUHU216HW,2013-09-17 16:09:00,
2013-09-17 09:14:00,57.1,1.0,29.70,SSE,158,1.1,1.1,1,0.00,,,0.00,WUHU216HW,2013-09-17 16:14:00,
2013-09-17 09:19:00,57.2,1.1,29.69,SSE,158,0.0,1.1,1,0.00,,,0.00,WUHU216HW,2013-09-17 16:19:00,
2013-09-17 09:24:00,57.6,1.4,29.70,SSE,158,0.0,1.1,1,0.00,,,0.00,WUHU216HW,2013-09-17 16:24:00,
2013-09-17 09:29:00,58.0,1.6,29.70,SSE,158,0.0,0.0,1,0.00,,,0.00,WUHU216HW,2013-09-17 16:29:00,
2013-09-17 09:34:00,58.3,2.0,29.69,SSE,158,0.0,0.0,1,0.00,,,0.00,WUHU216HW,2013-09-17 16:34:00,
2013-09-17 09:39:00,58.9,2.3,29.69,South,180,0.4,0.9,1,0.00,,,0.00,WUHU216HW,2013-09-17 16:39:00,
2013-09-17 09:44:00,59.4,2.8,29.69,SSW,203,1.1,1.1,1,0.00,,,0.00,WUHU216HW,2013-09-17 16:44:00,
2013-09-17 09:49:00,59.9,3.2,29.69,SSW,203,0.0,1.1,1,0.00,,,0.00,WUHU216HW,2013-09-17 16:49:00,
2013-09-17 09:54:00,60.1,3.4,29.69,SSE,158,1.1,1.3,1,0.00,,,0.00,WUHU216HW,2013-09-17 16:54:00,
2013-09-17 09:59:00,60.5,3.7,29.69,NNE,23,1.1,2.5,1,0.00,,,0.00,WUHU216HW,2013-09-17 16:59:00,
2013-09-17 10:04:00,60.3,3.5,29.69,North,0,0.4,2.5,1,0.00,,,0.00,WUHU216HW,2013-09-17 17:04:00,
2013-09-17 10:09:00,60.5,3.7,29.70,NNW,338,1.1,1.1,1,0.00,,,0.00,WUHU216HW,2013-09-17 17:09:00,
2013-09-17 10:14:00,60.5,3.7,29.70,East,90,0.4,1.1,1,0.00,,,0.00,WUHU216HW,2013-09-17 17:14:00,
2013-09-17 10:19:00,60.3,3.5,29.70,NE,45,0.4,1.6,1,0.00,,,0.00,WUHU216HW,2013-09-17 17:19:00,
2013-09-17 10:24:00,60.3,3.5,29.70,NE,45,0.4,1.6,1,0.00,,,0.00,WUHU216HW,2013-09-17 17:24:00,
2013-09-17 10:29:00,59.9,3.2,29.70,SSE,158,0.9,0.9,1,0.00,,,0.00,WUHU216HW,2013-09-17 17:29:00,
2013-09-17 10:34:00,59.8,3.1,29.70,NNE,23,0.4,0.9,1,0.00,,,0.00,WUHU216HW,2013-09-17 17:34:00,
2013-09-17 10:39:00,59.9,3.2,29.70,East,90,0.7,0.7,1,0.00,,,0.00,WUHU216HW,2013-09-17 17:39:00,
2013-09-17 10:44:00,60.1,3.4,29.70,East,90,0.0,0.7,1,0.00,,,0.00,WUHU216HW,2013-09-17 17:44:00,
2013-09-17 10:49:00,60.1,3.4,29.70,NNE,23,0.4,0.7,1,0.00,,,0.00,WUHU216HW,2013-09-17 17:49:00,
2013-09-17 10:54:00,60.3,3.5,29.70,NNE,23,0.4,1.1,1,0.00,,,0.00,WUHU216HW,2013-09-17 17:54:00,
2013-09-17 10:59:00,60.8,4.0,29.70,NW,315,0.0,1.1,1,0.00,,,0.00,WUHU216HW,2013-09-17 17:59:00,
2013-09-17 11:04:00,60.7,3.8,29.70,North,0,1.3,1.6,1,0.00,,,0.00,WUHU216HW,2013-09-17 18:04:00,
2013-09-17 11:09:00,60.1,3.4,29.70,ESE,113,1.1,1.6,1,0.00,,,0.00,WUHU216HW,2013-09-17 18:09:00,
2013-09-17 11:14:00,60.5,3.7,29.70,North,0,1.3,1.3,1,0.00,,,0.00,WUHU216HW,2013-09-17 18:14:00,
2013-09-17 11:19:00,60.5,3.7,29.70,North,0,2.9,2.9,1,0.00,,,0.00,WUHU216HW,2013-09-17 18:19:00,
2013-09-17 11:24:00,60.5,3.7,29.70,NNE,23,0.4,3.8,1,0.00,,,0.00,WUHU216HW,2013-09-17 18:24:00,
2013-09-17 11:29:00,60.3,3.5,29.69,WNW,293,1.6,4.7,1,0.00,,,0.00,WUHU216HW,2013-09-17 18:29:00,
2013-09-17 11:34:00,60.1,3.4,29.69,NNW,338,1.1,4.7,1,0.00,,,0.00,WUHU216HW,2013-09-17 18:34:00,
2013-09-17 11:39:00,60.5,3.7,29.69,NW,315,0.4,2.7,1,0.00,,,0.00,WUHU216HW,2013-09-17 18:39:00,
2013-09-17 11:44:00,60.5,3.7,29.69,NNE,23,1.8,3.1,1,0.00,,,0.00,WUHU216HW,2013-09-17 18:44:00,
2013-09-17 11:49:00,59.9,3.2,29.69,NNE,23,4.9,4.9,1,0.00,,,0.00,WUHU216HW,2013-09-17 18:49:00,
2013-09-17 11:54:00,59.8,3.1,29.69,NNE,23,2.0,4.9,1,0.00,,,0.00,WUHU216HW,2013-09-17 18:54:00,
2013-09-17 11:59:00,60.7,3.8,29.69,NE,45,0.2,2.7,1,0.00,,,0.00,WUHU216HW,2013-09-17 18:59:00,
2013-09-17 12:04:00,60.5,3.7,29.69,North,0,0.0,2.0,1,0.00,,,0.00,WUHU216HW,2013-09-17 19:04:00,
2013-09-17 12:09:00,60.7,3.8,29.69,NW,315,1.1,2.0,1,0.00,,,0.00,WUHU216HW,2013-09-17 19:09:00,
2013-09-17 12:14:00,61.0,4.2,29.69,SSW,203,0.9,1.8,1,0.00,,,0.00,WUHU216HW,2013-09-17 19:14:00,
2013-09-17 12:19:00,61.4,4.4,29.69,NNW,338,1.1,1.8,1,0.00,,,0.00,WUHU216HW,2013-09-17 19:19:00,
2013-09-17 12:24:00,61.6,4.5,29.69,North,0,2.9,2.9,1,0.00,,,0.00,WUHU216HW,2013-09-17 19:24:00,
2013-09-17 12:29:00,61.2,4.2,29.69,WNW,293,1.8,3.8,1,0.00,,,0.00,WUHU216HW,2013-09-17 19:29:00,
2013-09-17 12:34:00,61.0,4.2,29.70,North,0,2.0,3.8,1,0.00,,,0.00,WUHU216HW,2013-09-17 19:34:00,
2013-09-17 12:39:00,60.7,3.8,29.70,ENE,68,0.4,3.4,1,0.00,,,0.00,WUHU216HW,2013-09-17 19:39:00,
2013-09-17 12:44:00,60.8,4.0,29.70,North,0,0.9,3.4,1,0.00,,,0.00,WUHU216HW,2013-09-17 19:44:00,
2013-09-17 12:49:00,61.0,4.2,29.70,WSW,248,0.4,2.2,1,0.00,,,0.00,WUHU216HW,2013-09-17 19:49:00,
2013-09-17 12:54:00,61.0,4.2,29.70,SW,225,0.0,1.3,1,0.00,,,0.00,WUHU216HW,2013-09-17 19:54:00,
2013-09-17 12:59:00,60.8,4.0,29.70,NW,315,1.1,2.2,1,0.00,,,0.00,WUHU216HW,2013-09-17 19:59:00,
2013-09-17 13:04:00,61.2,4.2,29.70,SW,225,0.2,2.2,1,0.00,,,0.00,WUHU216HW,2013-09-17 20:04:00,
2013-09-17 13:09:00,60.8,4.0,29.70,NNW,338,0.7,1.8,1,0.00,,,0.00,WUHU216HW,2013-09-17 20:09:00,
2013-09-17 13:14:00,60.8,4.0,29.70,NW,315,4.0,4.0,1,0.00,,,0.00,WUHU216HW,2013-09-17 20:14:00,
2013-09-17 13:19:00,60.3,3.5,29.70,North,0,0.0,4.0,1,0.00,,,0.00,WUHU216HW,2013-09-17 20:19:00,
2013-09-17 13:24:00,60.7,3.8,29.70,NNW,338,0.4,1.8,1,0.00,,,0.00,WUHU216HW,2013-09-17 20:24:00,
2013-09-17 13:29:00,60.8,4.0,29.70,North,0,0.0,1.3,1,0.00,,,0.00,WUHU216HW,2013-09-17 20:29:00,
2013-09-17 13:34:00,61.4,4.4,29.70,NNE,23,1.1,1.3,1,0.00,,,0.00,WUHU216HW,2013-09-17 20:34:00,
2013-09-17 13:39:00,61.7,4.7,29.70,North,0,1.1,2.5,1,0.00,,,0.00,WUHU216HW,2013-09-17 20:39:00,
2013-09-17 13:44:00,61.6,4.5,29.70,SSW,203,0.9,2.5,1,0.00,,,0.00,WUHU216HW,2013-09-17 20:44:00,
2013-09-17 13:49:00,61.0,4.2,29.70,WSW,248,0.7,2.2,1,0.00,,,0.00,WUHU216HW,2013-09-17 20:49:00,
2013-09-17 13:54:00,60.3,3.5,29.70,South,180,1.1,1.8,1,0.00,,,0.00,WUHU216HW,2013-09-17 20:54:00,
2013-09-17 13:59:00,60.3,3.5,29.70,North,0,1.3,1.3,1,0.00,,,0.00,WUHU216HW,2013-09-17 20:59:00,
2013-09-17 14:04:00,60.1,3.4,29.70,SSW,203,1.3,1.8,1,0.00,,,0.00,WUHU216HW,2013-09-17 21:04:00,
2013-09-17 14:09:00,59.8,3.1,29.70,SW,225,0.9,4.3,1,0.00,,,0.00,WUHU216HW,2013-09-17 21:09:00,
2013-09-17 14:14:00,59.9,3.2,29.70,North,0,0.9,4.3,1,0.00,,,0.00,WUHU216HW,2013-09-17 21:14:00,
2013-09-17 14:19:00,59.8,3.1,29.70,South,180,0.7,2.5,1,0.00,,,0.00,WUHU216HW,2013-09-17 21:19:00,
2013-09-17 14:24:00,59.8,3.1,29.70,SW,225,1.1,2.5,1,0.00,,,0.00,WUHU216HW,2013-09-17 21:24:00,
2013-09-17 14:29:00,59.8,3.1,29.70,West,270,1.8,2.9,1,0.00,,,0.00,WUHU216HW,2013-09-17 21:29:00,
2013-09-17 14:34:00,59.2,2.7,29.70,SSW,203,0.2,3.1,1,0.00,,,0.00,WUHU216HW,2013-09-17 21:34:00,
2013-09-17 14:39:00,59.6,3.0,29.70,SE,135,1.8,3.1,1,0.00,,,0.00,WUHU216HW,2013-09-17 21:39:00,
2013-09-17 14:44:00,59.6,3.0,29.70,SE,135,0.4,2.0,1,0.00,,,0.00,WUHU216HW,2013-09-17 21:44:00,
2013-09-17 14:49:00,59.9,3.2,29.70,SE,135,0.7,1.1,1,0.00,,,0.00,WUHU216HW,2013-09-17 21:49:00,
2013-09-17 14:54:00,59.9,3.2,29.70,ESE,113,1.1,1.6,1,0.00,,,0.00,WUHU216HW,2013-09-17 21:54:00,
2013-09-17 14:59:00,59.8,3.1,29.70,ENE,68,0.2,1.6,1,0.00,,,0.00,WUHU216HW,2013-09-17 21:59:00,
2013-09-17 15:04:00,59.9,3.2,29.70,East,90,0.4,1.3,1,0.00,,,0.00,WUHU216HW,2013-09-17 22:04:00,
2013-09-17 15:09:00,60.3,3.5,29.70,SE,135,0.0,0.7,1,0.00,,,0.00,WUHU216HW,2013-09-17 22:09:00,
2013-09-17 15:14:00,61.4,4.4,29.70,SE,135,0.4,0.7,1,0.00,,,0.00,WUHU216HW,2013-09-17 22:14:00,
2013-09-17 15:19:00,62.1,5.0,29.70,SW,225,1.3,1.3,1,0.00,,,0.00,WUHU216HW,2013-09-17 22:19:00,
2013-09-17 15:24:00,62.5,5.2,29.70,West,270,1.3,2.5,1,0.00,,,0.00,WUHU216HW,2013-09-17 22:24:00,
2013-09-17 15:29:00,63.0,5.7,29.70,South,180,1.1,2.5,1,0.00,,,0.00,WUHU216HW,2013-09-17 22:29:00,
2013-09-17 15:34:00,63.0,5.7,29.70,South,180,0.7,1.8,1,0.00,,,0.00,WUHU216HW,2013-09-17 22:34:00,
2013-09-17 15:40:00,63.2,5.8,29.70,WNW,293,0.9,0.9,1,0.00,,,0.00,WUHU216HW,2013-09-17 22:40:00,
2013-09-17 15:45:00,62.6,5.4,29.70,North,0,0.7,1.8,1,0.00,,,0.00,WUHU216HW,2013-09-17 22:45:00,
2013-09-17 15:50:00,62.6,5.4,29.70,NW,315,0.0,1.8,1,0.00,,,0.00,WUHU216HW,2013-09-17 22:50:00,
2013-09-17 15:55:00,63.2,5.8,29.70,West,270,1.6,1.6,1,0.00,,,0.00,WUHU216HW,2013-09-17 22:55:00,
2013-09-17 16:00:00,63.2,5.8,29.70,West,270,1.1,1.6,1,0.00,,,0.00,WUHU216HW,2013-09-17 23:00:00,
2013-09-17 16:05:00,63.4,6.0,29.70,WNW,293,0.9,1.6,1,0.00,,,0.00,WUHU216HW,2013-09-17 23:05:00,
2013-09-17 16:10:00,63.2,5.8,29.70,North,0,0.2,1.6,1,0.00,,,0.00,WUHU216HW,2013-09-17 23:10:00,
2013-09-17 16:15:00,63.0,5.7,29.70,WSW,248,0.2,1.8,1,0.00,,,0.00,WUHU216HW,2013-09-17 23:15:00,
2013-09-17 16:20:00,62.6,5.4,29.70,WSW,248,1.1,1.8,1,0.00,,,0.00,WUHU216HW,2013-09-17 23:20:00,
2013-09-17 16:25:00,62.1,5.0,29.70,WSW,248,1.1,1.6,1,0.00,,,0.00,WUHU216HW,2013-09-17 23:25:00,
2013-09-17 16:30:00,61.9,4.9,29.70,NNW,338,0.4,1.1,1,0.00,,,0.00,WUHU216HW,2013-09-17 23:30:00,
2013-09-17 16:35:00,61.7,4.7,29.70,NNW,338,0.0,1.1,1,0.00,,,0.00,WUHU216HW,2013-09-17 23:35:00,
2013-09-17 16:40:00,61.7,4.7,29.70,North,0,1.1,1.6,1,0.00,,,0.00,WUHU216HW,2013-09-17 23:40:00,
2013-09-17 16:45:00,61.9,4.9,29.70,NNE,23,2.5,2.5,1,0.00,,,0.00,WUHU216HW,2013-09-17 23:45:00,
2013-09-17 16:50:00,61.6,4.5,29.70,NNW,338,0.4,2.5,1,0.00,,,0.00,WUHU216HW,2013-09-17 23:50:00,
2013-09-17 16:55:00,61.2,4.2,29.70,NNE,23,0.4,2.5,1,0.00,,,0.00,WUHU216HW,2013-09-17 23:55:00,
2013-09-17 17:00:00,61.4,4.4,29.70,NW,315,0.0,0.7,1,0.00,,,0.00,WUHU216HW,2013-09-18 00:00:00,
2013-09-17 17:05:00,61.0,4.2,29.70,ENE,68,0.0,0.7,1,0.00,,,0.00,WUHU216HW,2013-09-18 00:05:00,
2013-09-17 17:10:00,61.0,4.2,29.70,East,90,1.3,1.3,1,0.00,,,0.00,WUHU216HW,2013-09-18 00:10:00,
2013-09-17 17:15:00,60.8,4.0,29.70,East,90,0.4,1.3,1,0.00,,,0.00,WUHU216HW,2013-09-18 00:15:00,
2013-09-17 17:20:00,60.8,4.0,29.70,East,90,0.4,1.1,1,0.00,,,0.00,WUHU216HW,2013-09-18 00:20:00,
2013-09-17 17:25:00,60.8,4.0,29.70,SSE,158,0.7,1.1,1,0.00,,,0.00,WUHU216HW,2013-09-18 00:25:00,
2013-09-17 17:30:00,61.0,4.2,29.69,SSE,158,0.7,1.8,1,0.00,,,0.00,WUHU216HW,2013-09-18 00:30:00,
2013-09-17 17:35:00,60.8,4.0,29.69,SSE,158,0.4,1.8,1,0.00,,,0.00,WUHU216HW,2013-09-18 00:35:00,
2013-09-17 17:40:00,60.5,3.7,29.70,SSE,158,0.9,0.9,1,0.00,,,0.00,WUHU216HW,2013-09-18 00:40:00,
2013-09-17 17:45:00,60.1,3.4,29.69,ESE,113,0.9,0.9,1,0.00,,,0.00,WUHU216HW,2013-09-18 00:45:00,
2013-09-17 17:50:00,60.1,3.4,29.70,ENE,68,1.1,1.1,1,0.00,,,0.00,WUHU216HW,2013-09-18 00:50:00,
2013-09-17 17:54:00,59.8,3.1,29.70,ENE,68,0.9,1.8,1,0.00,,,0.00,WUHU216HW,2013-09-18 00:54:00,
2013-09-17 17:56:00,59.8,3.1,29.70,ENE,68,0.7,1.8,1,0.00,,,0.00,WUHU216HW,2013-09-18 00:56:00,
2013-09-17 17:57:00,59.9,3.2,29.70,ENE,68,0.9,1.8,1,0.00,,,0.00,WUHU216HW,2013-09-18 00:57:00,
2013-09-17 17:58:00,59.8,3.1,29.70,ENE,68,0.4,1.8,1,0.00,,,0.00,WUHU216HW,2013-09-18 00:58:00,
2013-09-17 18:00:00,59.8,3.1,29.70,ENE,68,0.4,1.3,1,0.00,,,0.00,WUHU216HW,2013-09-18 01:00:00,
2013-09-17 18:01:00,59.8,3.1,29.70,ENE,68,0.2,1.1,1,0.00,,,0.00,WUHU216HW,2013-09-18 01:01:00,
2013-09-17 18:02:00,59.8,3.1,29.70,ENE,68,0.7,1.1,1,0.00,,,0.00,WUHU216HW,2013-09-18 01:02:00,
2013-09-17 18:04:00,59.6,3.0,29.70,ENE,68,0.4,0.9,1,0.00,,,0.00,WUHU216HW,2013-09-18 01:04:00,
2013-09-17 18:05:00,59.6,3.0,29.70,ENE,68,0.4,0.9,1,0.00,,,0.00,WUHU216HW,2013-09-18 01:05:00,
2013-09-17 18:06:00,59.6,3.0,29.70,East,90,0.4,0.9,1,0.00,,,0.00,WUHU216HW,2013-09-18 01:06:00,
2013-09-17 18:07:00,59.4,2.8,29.70,East,90,0.4,0.9,1,0.00,,,0.00,WUHU216HW,2013-09-18 01:07:00,
2013-09-17 18:09:00,59.4,2.8,29.70,East,90,0.4,0.9,1,0.00,,,0.00,WUHU216HW,2013-09-18 01:09:00,
2013-09-17 18:10:00,59.4,2.8,29.70,East,90,0.9,0.9,1,0.00,,,0.00,WUHU216HW,2013-09-18 01:10:00,
2013-09-17 18:11:00,59.4,2.8,29.70,East,90,0.4,0.9,1,0.00,,,0.00,WUHU216HW,2013-09-18 01:11:00,
2013-09-17 18:12:00,59.4,2.8,29.70,East,90,0.7,0.9,1,0.00,,,0.00,WUHU216HW,2013-09-18 01:12:00,
2013-09-17 18:14:00,59.2,2.7,29.70,East,90,0.4,0.9,1,0.00,,,0.00,WUHU216HW,2013-09-18 01:14:00,
2013-09-17 18:15:00,59.2,2.7,29.70,East,90,0.2,0.9,1,0.00,,,0.00,WUHU216HW,2013-09-18 01:15:00,
2013-09-17 18:16:00,59.0,2.5,29.70,East,90,0.0,0.9,1,0.00,,,0.00,WUHU216HW,2013-09-18 01:16:00,
2013-09-17 18:17:00,59.0,2.5,29.70,East,90,0.0,0.9,1,0.00,,,0.00,WUHU216HW,2013-09-18 01:17:00,
2013-09-17 18:19:00,58.9,2.3,29.70,East,90,0.0,0.9,1,0.00,,,0.00,WUHU216HW,2013-09-18 01:19:00,
2013-09-17 18:20:00,58.7,2.3,29.70,East,90,0.0,0.7,1,0.00,,,0.00,WUHU216HW,2013-09-18 01:20:00,
2013-09-17 18:21:00,58.9,2.3,29.70,East,90,0.0,0.7,1,0.00,,,0.00,WUHU216HW,2013-09-18 01:21:00,
2013-09-17 18:22:00,58.9,2.3,29.71,East,90,0.0,0.7,1,0.00,,,0.00,WUHU216HW,2013-09-18 01:22:00,
2013-09-17 18:24:00,58.7,2.3,29.70,East,90,0.7,0.7,1,0.00,,,0.00,WUHU216HW,2013-09-18 01:24:00,
2013-09-17 18:25:00,58.7,2.3,29.70,East,90,0.7,0.7,1,0.00,,,0.00,WUHU216HW,2013-09-18 01:25:00,
2013-09-17 18:26:00,58.5,2.1,29.70,East,90,0.4,0.7,1,0.00,,,0.00,WUHU216HW,2013-09-18 01:26:00,
2013-09-17 18:27:00,58.5,2.1,29.71,East,90,0.4,0.7,1,0.00,,,0.00,WUHU216HW,2013-09-18 01:27:00,
2013-09-17 18:28:00,58.5,2.1,29.70,East,90,0.4,0.7,1,0.00,,,0.00,WUHU216HW,2013-09-18 01:28:00,
2013-09-17 18:58:00,57.6,1.4,29.71,East,90,0.0,0.0,1,0.00,,,0.00,WUHU216HW,2013-09-18 01:58:00,
2013-09-17 18:59:00,57.4,1.3,29.71,East,90,0.4,0.4,1,0.00,,,0.00,WUHU216HW,2013-09-18 01:59:00,
2013-09-17 19:00:00,57.4,1.3,29.71,East,90,0.4,0.4,1,0.00,,,0.00,WUHU216HW,2013-09-18 02:00:00,
2013-09-17 19:01:00,57.4,1.3,29.71,East,90,0.0,0.4,1,0.00,,,0.00,WUHU216HW,2013-09-18 02:01:00,
2013-09-17 19:04:00,57.2,1.1,29.71,East,90,0.0,0.4,1,0.00,,,0.00,WUHU216HW,2013-09-18 02:04:00,
2013-09-17 19:05:00,57.2,1.1,29.71,East,90,0.0,0.4,1,0.00,,,0.00,WUHU216HW,2013-09-18 02:05:00,
2013-09-17 19:06:00,57.2,1.1,29.71,East,90,0.0,0.4,1,0.00,,,0.00,WUHU216HW,2013-09-18 02:06:00,
2013-09-17 19:07:00,57.2,1.1,29.71,East,90,0.0,0.4,1,0.00,,,0.00,WUHU216HW,2013-09-18 02:07:00,
2013-09-17 19:08:00,57.2,1.1,29.71,East,90,0.0,0.4,1,0.00,,,0.00,WUHU216HW,2013-09-18 02:08:00,
2013-09-17 19:09:00,57.2,1.1,29.71,East,90,0.0,0.4,1,0.00,,,0.00,WUHU216HW,2013-09-18 02:09:00,
2013-09-17 19:10:00,57.2,1.1,29.71,East,90,0.0,0.0,1,0.00,,,0.00,WUHU216HW,2013-09-18 02:10:00,
2013-09-17 19:11:00,57.1,1.0,29.71,East,90,0.0,0.0,1,0.00,,,0.00,WUHU216HW,2013-09-18 02:11:00,
2013-09-17 19:12:00,57.1,1.0,29.71,East,90,0.0,0.0,1,0.00,,,0.00,WUHU216HW,2013-09-18 02:12:00,
2013-09-17 19:13:00,57.1,1.0,29.71,East,90,0.0,0.0,1,0.00,,,0.00,WUHU216HW,2013-09-18 02:13:00,
2013-09-17 19:14:00,57.1,1.0,29.71,East,90,0.0,0.0,1,0.00,,,0.00,WUHU216HW,2013-09-18 02:14:00,
2013-09-17 19:15:00,56.9,0.8,29.71,East,90,0.0,0.0,1,0.00,,,0.00,WUHU216HW,2013-09-18 02:15:00,
2013-09-17 19:16:00,56.9,0.8,29.71,East,90,0.0,0.0,1,0.00,,,0.00,WUHU216HW,2013-09-18 02:16:00,
2013-09-17 19:17:00,56.9,0.8,29.71,East,90,0.0,0.0,1,0.00,,,0.00,WUHU216HW,2013-09-18 02:17:00,
2013-09-17 19:18:00,56.9,0.8,29.71,East,90,0.0,0.0,1,0.00,,,0.00,WUHU216HW,2013-09-18 02:18:00,
2013-09-17 19:19:00,56.9,0.8,29.71,East,90,0.0,0.0,1,0.00,,,0.00,WUHU216HW,2013-09-18 02:19:00,
2013-09-17 19:20:00,56.9,0.8,29.71,East,90,0.0,0.0,1,0.00,,,0.00,WUHU216HW,2013-09-18 02:20:00,
2013-09-17 19:22:00,56.7,0.7,29.71,East,90,0.0,0.0,1,0.00,,,0.00,WUHU216HW,2013-09-18 02:22:00,
2013-09-17 19:23:00,56.7,0.7,29.71,East,90,0.0,0.0,1,0.00,,,0.00,WUHU216HW,2013-09-18 02:23:00,
2013-09-17 19:24:00,56.7,0.7,29.72,East,90,0.0,0.0,1,0.00,,,0.00,WUHU216HW,2013-09-18 02:24:00,
2013-09-17 19:25:00,56.7,0.7,29.72,East,90,0.0,0.0,1,0.00,,,0.00,WUHU216HW,2013-09-18 02:25:00,
2013-09-17 19:26:00,56.5,0.5,29.72,East,90,0.0,0.0,1,0.00,,,0.00,WUHU216HW,2013-09-18 02:26:00,
2013-09-17 19:27:00,56.5,0.5,29.72,East,90,0.0,0.0,1,0.00,,,0.00,WUHU216HW,2013-09-18 02:27:00,
2013-09-17 19:28:00,56.5,0.5,29.72,East,90,0.0,0.0,1,0.00,,,0.00,WUHU216HW,2013-09-18 02:28:00,
2013-09-17 19:29:00,56.5,0.5,29.72,East,90,0.0,0.0,1,0.00,,,0.00,WUHU216HW,2013-09-18 02:29:00,
2013-09-17 19:30:00,56.5,0.5,29.72,East,90,0.0,0.0,1,0.00,,,0.00,WUHU216HW,2013-09-18 02:30:00,
2013-09-17 19:31:00,56.5,0.5,29.72,East,90,0.0,0.0,1,0.00,,,0.00,WUHU216HW,2013-09-18 02:31:00,
2013-09-17 19:32:00,56.5,0.5,29.72,East,90,0.0,0.0,1,0.00,,,0.00,WUHU216HW,2013-09-18 02:32:00,
2013-09-17 19:33:00,56.5,0.5,29.72,East,90,0.0,0.0,1,0.00,,,0.00,WUHU216HW,2013-09-18 02:33:00,
2013-09-17 19:34:00,56.3,0.5,29.72,East,90,0.0,0.0,1,0.00,,,0.00,WUHU216HW,2013-09-18 02:34:00,
2013-09-17 19:35:00,56.3,0.5,29.72,East,90,0.0,0.0,1,0.00,,,0.00,WUHU216HW,2013-09-18 02:35:00,
2013-09-17 19:36:00,56.3,0.5,29.72,East,90,0.0,0.0,1,0.00,,,0.00,WUHU216HW,2013-09-18 02:36:00,
2013-09-17 19:37:00,56.3,0.5,29.72,East,90,0.0,0.0,1,0.00,,,0.00,WUHU216HW,2013-09-18 02:37:00,
2013-09-17 19:38:00,56.3,0.5,29.72,East,90,0.0,0.0,1,0.00,,,0.00,WUHU216HW,2013-09-18 02:38:00,
2013-09-17 19:39:00,56.3,0.5,29.72,East,90,0.0,0.0,1,0.00,,,0.00,WUHU216HW,2013-09-18 02:39:00,
2013-09-17 19:40:00,56.3,0.5,29.72,East,90,0.0,0.0,1,0.00,,,0.00,WUHU216HW,2013-09-18 02:40:00,
2013-09-17 19:41:00,56.2,0.4,29.72,East,90,0.0,0.0,1,0.00,,,0.00,WUHU216HW,2013-09-18 02:41:00,
2013-09-17 19:42:00,56.2,0.4,29.72,East,90,0.0,0.0,1,0.00,,,0.00,WUHU216HW,2013-09-18 02:42:00,
2013-09-17 19:43:00,56.2,0.4,29.72,East,90,0.0,0.0,1,0.00,,,0.00,WUHU216HW,2013-09-18 02:43:00,
2013-09-17 19:44:00,56.2,0.4,29.72,East,90,0.0,0.0,1,0.00,,,0.00,WUHU216HW,2013-09-18 02:44:00,
2013-09-17 19:45:00,56.2,0.4,29.72,East,90,0.0,0.0,1,0.00,,,0.00,WUHU216HW,2013-09-18 02:45:00,
2013-09-17 19:46:00,56.2,0.4,29.72,East,90,0.0,0.0,1,0.00,,,0.00,WUHU216HW,2013-09-18 02:46:00,
2013-09-17 19:47:00,56.0,0.2,29.72,East,90,0.0,0.0,1,0.00,,,0.00,WUHU216HW,2013-09-18 02:47:00,
2013-09-17 19:48:00,56.0,0.2,29.72,East,90,0.0,0.0,1,0.00,,,0.00,WUHU216HW,2013-09-18 02:48:00,
2013-09-17 19:49:00,56.0,0.2,29.72,East,90,0.0,0.0,1,0.00,,,0.00,WUHU216HW,2013-09-18 02:49:00,
2013-09-17 19:50:00,56.0,0.2,29.72,East,90,0.0,0.0,1,0.00,,,0.00,WUHU216HW,2013-09-18 02:50:00,
2013-09-17 19:51:00,56.0,0.2,29.72,East,90,0.0,0.0,1,0.00,,,0.00,WUHU216HW,2013-09-18 02:51:00,
2013-09-17 19:52:00,55.8,0.1,29.72,East,90,0.0,0.0,1,0.00,,,0.00,WUHU216HW,2013-09-18 02:52:00,
2013-09-17 19:53:00,55.8,0.1,29.72,East,90,0.0,0.0,1,0.00,,,0.00,WUHU216HW,2013-09-18 02:53:00,
2013-09-17 19:54:00,55.8,0.1,29.72,East,90,0.0,0.0,1,0.00,,,0.00,WUHU216HW,2013-09-18 02:54:00,
2013-09-17 19:55:00,55.8,0.1,29.73,East,90,0.0,0.0,1,0.00,,,0.00,WUHU216HW,2013-09-18 02:55:00,
2013-09-17 19:56:00,55.8,0.1,29.72,East,90,0.0,0.0,1,0.00,,,0.00,WUHU216HW,2013-09-18 02:56:00,
2013-09-17 19:57:00,55.8,0.1,29.73,East,90,0.0,0.0,1,0.00,,,0.00,WUHU216HW,2013-09-18 02:57:00,
2013-09-17 19:58:00,55.8,0.1,29.72,East,90,0.0,0.0,1,0.00,,,0.00,WUHU216HW,2013-09-18 02:58:00,
2013-09-17 19:59:00,55.8,0.1,29.72,ESE,113,0.4,0.4,1,0.00,,,0.00,WUHU216HW,2013-09-18 02:59:00,
2013-09-17 20:00:00,55.8,0.1,29.73,ESE,113,0.4,0.4,1,0.00,,,0.00,WUHU216HW,2013-09-18 03:00:00,
2013-09-17 20:01:00,55.8,0.1,29.73,ESE,113,0.4,0.4,1,0.00,,,0.00,WUHU216HW,2013-09-18 03:01:00,
2013-09-17 20:02:00,55.8,0.1,29.73,ESE,113,0.4,0.4,1,0.00,,,0.00,WUHU216HW,2013-09-18 03:02:00,
2013-09-17 20:03:00,55.8,0.1,29.73,ESE,113,0.0,0.4,1,0.00,,,0.00,WUHU216HW,2013-09-18 03:03:00,
2013-09-17 20:04:00,55.8,0.1,29.73,ESE,113,0.4,0.4,1,0.00,,,0.00,WUHU216HW,2013-09-18 03:04:00,
2013-09-17 20:05:00,55.8,0.1,29.73,ESE,113,0.4,0.4,1,0.00,,,0.00,WUHU216HW,2013-09-18 03:05:00,
2013-09-17 20:06:00,55.6,-0.1,29.73,ESE,113,0.2,0.4,1,0.00,,,0.00,WUHU216HW,2013-09-18 03:06:00,
2013-09-17 20:07:00,55.6,-0.1,29.73,ESE,113,0.0,0.4,1,0.00,,,0.00,WUHU216HW,2013-09-18 03:07:00,
2013-09-17 20:08:00,55.6,-0.1,29.73,ESE,113,0.0,0.4,1,0.00,,,0.00,WUHU216HW,2013-09-18 03:08:00,
2013-09-17 20:09:00,55.6,-0.1,29.73,ESE,113,0.0,0.4,1,0.00,,,0.00,WUHU216HW,2013-09-18 03:09:00,
2013-09-17 20:10:00,55.4,-0.2,29.73,ESE,113,0.0,0.4,1,0.00,,,0.00,WUHU216HW,2013-09-18 03:10:00,
2013-09-17 20:11:00,55.4,-0.2,29.73,ESE,113,0.0,0.4,1,0.00,,,0.00,WUHU216HW,2013-09-18 03:11:00,
2013-09-17 20:12:00,55.4,-0.2,29.73,ESE,113,0.0,0.4,1,0.00,,,0.00,WUHU216HW,2013-09-18 03:12:00,
2013-09-17 20:13:00,55.4,-0.2,29.73,ESE,113,0.0,0.4,1,0.00,,,0.00,WUHU216HW,2013-09-18 03:13:00,
2013-09-17 20:14:00,55.4,-0.2,29.73,ESE,113,0.0,0.4,1,0.00,,,0.00,WUHU216HW,2013-09-18 03:14:00,
2013-09-17 20:15:00,55.4,-0.2,29.73,ESE,113,0.0,0.2,1,0.00,,,0.00,WUHU216HW,2013-09-18 03:15:00,
2013-09-17 20:16:00,55.4,-0.2,29.73,ESE,113,0.0,0.0,1,0.00,,,0.00,WUHU216HW,2013-09-18 03:16:00,
2013-09-17 20:25:00,55.1,-0.4,29.73,ESE,113,0.0,0.0,1,0.00,,,0.00,WUHU216HW,2013-09-18 03:25:00,
2013-09-17 20:30:00,55.1,-0.4,29.73,ESE,113,0.0,0.0,1,0.00,,,0.00,WUHU216HW,2013-09-18 03:30:00,
2013-09-17 20:35:00,55.1,-0.4,29.73,ESE,113,0.0,0.0,1,0.00,,,0.00,WUHU216HW,2013-09-18 03:35:00,
2013-09-17 21:00:00,54.7,-0.7,29.75,ESE,113,0.0,0.0,1,0.00,,,0.00,WUHU216HW,2013-09-18 04:00:00,
2013-09-17 21:01:00,54.7,-0.7,29.75,ESE,113,0.0,0.0,1,0.00,,,0.00,WUHU216HW,2013-09-18 04:01:00,
2013-09-17 21:06:00,54.5,-0.9,29.75,ESE,113,0.0,0.0,1,0.00,,,0.00,WUHU216HW,2013-09-18 04:06:00,
2013-09-17 21:11:00,54.5,-0.9,29.75,ESE,113,0.0,0.0,1,0.00,,,0.00,WUHU216HW,2013-09-18 04:11:00,
2013-09-17 21:16:00,54.7,-0.7,29.75,ESE,113,0.0,0.0,1,0.00,,,0.00,WUHU216HW,2013-09-18 04:16:00,
2013-09-17 21:21:00,54.7,-0.7,29.74,ESE,113,0.0,0.0,1,0.00,,,0.00,WUHU216HW,2013-09-18 04:21:00,
2013-09-17 21:26:00,54.9,-0.6,29.74,SSE,158,0.7,1.1,1,0.00,,,0.00,WUHU216HW,2013-09-18 04:26:00,
2013-09-17 21:31:00,54.9,-0.6,29.75,SSE,158,0.7,1.1,1,0.00,,,0.00,WUHU216HW,2013-09-18 04:31:00,
2013-09-17 21:36:00,54.9,-0.6,29.75,SSE,158,0.0,0.9,1,0.00,,,0.00,WUHU216HW,2013-09-18 04:36:00,
2013-09-17 21:41:00,55.1,-0.4,29.75,SSE,158,0.4,0.7,1,0.00,,,0.00,WUHU216HW,2013-09-18 04:41:00,
2013-09-17 21:46:00,54.9,-0.6,29.75,ESE,113,0.4,0.7,1,0.00,,,0.00,WUHU216HW,2013-09-18 04:46:00,
2013-09-17 21:51:00,54.7,-0.7,29.75,ESE,113,0.0,0.7,1,0.00,,,0.00,WUHU216HW,2013-09-18 04:51:00,
2013-09-17 21:56:00,54.9,-0.6,29.75,SE,135,0.0,0.7,1,0.00,,,0.00,WUHU216HW,2013-09-18 04:56:00,
2013-09-17 22:01:00,54.9,-0.6,29.75,SSW,203,0.4,0.9,1,0.00,,,0.00,WUHU216HW,2013-09-18 05:01:00,
2013-09-17 22:06:00,54.9,-0.6,29.75,South,180,0.0,0.9,1,0.00,,,0.00,WUHU216HW,2013-09-18 05:06:00,
2013-09-17 22:11:00,54.9,-0.6,29.75,South,180,0.0,0.7,1,0.00,,,0.00,WUHU216HW,2013-09-18 05:11:00,
2013-09-17 22:16:00,54.9,-0.6,29.75,South,180,0.0,0.7,1,0.00,,,0.00,WUHU216HW,2013-09-18 05:16:00,
2013-09-17 22:21:00,54.7,-0.7,29.75,SE,135,0.2,0.4,1,0.00,,,0.00,WUHU216HW,2013-09-18 05:21:00,
2013-09-17 22:26:00,54.7,-0.7,29.75,SE,135,0.0,0.4,1,0.00,,,0.00,WUHU216HW,2013-09-18 05:26:00,
2013-09-17 22:31:00,54.7,-0.7,29.75,SE,135,0.0,0.2,1,0.00,,,0.00,WUHU216HW,2013-09-18 05:31:00,
2013-09-17 22:36:00,54.7,-0.7,29.76,SE,135,0.0,0.0,1,0.00,,,0.00,WUHU216HW,2013-09-18 05:36:00,
2013-09-17 22:41:00,54.7,-0.7,29.76,SE,135,0.0,0.0,1,0.00,,,0.00,WUHU216HW,2013-09-18 05:41:00,
2013-09-17 22:46:00,54.7,-0.7,29.76,SE,135,0.0,0.0,1,0.00,,,0.00,WUHU216HW,2013-09-18 05:46:00,
2013-09-17 22:51:00,54.9,-0.6,29.76,SE,135,0.0,0.0,1,0.00,,,0.00,WUHU216HW,2013-09-18 05:51:00,
2013-09-17 22:56:00,54.9,-0.6,29.76,SE,135,0.0,0.0,1,0.00,,,0.00,WUHU216HW,2013-09-18 05:56:00,
2013-09-17 23:01:00,54.9,-0.6,29.76,SE,135,0.0,0.0,1,0.00,,,0.00,WUHU216HW,2013-09-18 06:01:00,
2013-09-17 23:06:00,54.7,-0.7,29.76,SE,135,0.0,0.7,1,0.00,,,0.00,WUHU216HW,2013-09-18 06:06:00,
2013-09-17 23:11:00,54.7,-0.7,29.76,SE,135,0.0,0.7,1,0.00,,,0.00,WUHU216HW,2013-09-18 06:11:00,
2013-09-17 23:16:00,54.5,-0.9,29.76,SE,135,0.0,0.4,1,0.00,,,0.00,WUHU216HW,2013-09-18 06:16:00,
2013-09-17 23:21:00,54.5,-0.9,29.76,SE,135,0.0,0.4,1,0.00,,,0.00,WUHU216HW,2013-09-18 06:21:00,
2013-09-17 23:26:00,54.5,-0.9,29.76,SE,135,0.0,0.0,1,0.00,,,0.00,WUHU216HW,2013-09-18 06:26:00,
2013-09-17 23:48:00,54.0,-1.3,29.76,SSE,158,0.0,0.0,1,0.00,,,0.00,WUHU216HW,2013-09-18 06:48:00,
2013-09-17 23:53:00,54.2,-1.2,29.77,SE,135,0.0,0.0,1,0.00,,,0.00,WUHU216HW,2013-09-18 06:53:00,
2013-09-17 23:58:00,54.4,-1.1,29.77,SE,135,0.0,0.0,1,0.00,,,0.00,WUHU216HW,2013-09-18 06:58:00,